createdAt,value
2018-07-14T00:00:28.809Z,7.90
2018-07-14T00:02:58.065Z,7.47
2018-07-14T00:05:27.264Z,8.87
2018-07-14T00:07:56.505Z,7.80
2018-07-14T00:10:25.675Z,7.90
2018-07-14T00:12:54.794Z,8.23
2018-07-14T00:15:23.904Z,8.23
2018-07-14T00:17:53.067Z,8.43
2018-07-14T00:20:22.268Z,7.87
2018-07-14T00:22:51.509Z,8.67
2018-07-14T00:25:26.755Z,8.50
2018-07-14T00:27:55.914Z,9.20
2018-07-14T00:30:24.968Z,9.07
2018-07-14T00:32:54.265Z,9.63
2018-07-14T00:35:23.365Z,8.50
2018-07-14T00:37:52.503Z,9.00
2018-07-14T00:40:21.671Z,9.57
2018-07-14T00:42:51.139Z,8.77
2018-07-14T00:45:20.234Z,9.17
2018-07-14T00:47:49.475Z,8.80
2018-07-14T00:50:18.601Z,8.40
2018-07-14T00:52:47.733Z,9.27
2018-07-14T00:55:16.855Z,8.93
2018-07-14T00:57:46.018Z,9.57
2018-07-14T01:00:14.937Z,11.60
2018-07-14T01:02:43.933Z,11.50
2018-07-14T01:05:12.860Z,10.20
2018-07-14T01:07:41.870Z,11.03
2018-07-14T01:10:10.795Z,11.27
2018-07-14T01:12:39.733Z,9.27
2018-07-14T01:15:08.715Z,9.93
2018-07-14T01:17:37.737Z,9.73
2018-07-14T01:20:06.677Z,9.50
2018-07-14T01:22:35.716Z,9.00
2018-07-14T01:25:04.664Z,9.53
2018-07-14T01:27:33.613Z,12.13
2018-07-14T01:30:02.594Z,8.93
2018-07-14T01:32:31.523Z,9.73
2018-07-14T01:35:00.488Z,9.57
2018-07-14T01:37:29.457Z,10.07
2018-07-14T01:39:58.353Z,9.73
2018-07-14T01:42:27.268Z,10.00
2018-07-14T01:44:56.169Z,9.20
2018-07-14T01:47:25.129Z,9.40
2018-07-14T01:49:54.030Z,9.60
2018-07-14T01:52:23.008Z,10.07
2018-07-14T01:54:51.960Z,12.57
2018-07-14T01:57:20.943Z,8.90
2018-07-14T01:59:49.903Z,10.10
2018-07-14T02:02:18.783Z,9.43
2018-07-14T02:04:47.723Z,8.97
2018-07-14T02:07:16.632Z,11.00
2018-07-14T02:09:45.668Z,9.13
2018-07-14T02:12:14.579Z,10.37
2018-07-14T02:14:43.542Z,11.40
2018-07-14T02:17:12.509Z,10.37
2018-07-14T02:19:41.464Z,12.00
2018-07-14T02:22:10.368Z,8.60
2018-07-14T02:24:39.325Z,9.57
2018-07-14T02:27:08.238Z,10.63
2018-07-14T02:29:37.177Z,14.97
2018-07-14T02:32:06.289Z,8.23
2018-07-14T02:34:35.248Z,10.30
2018-07-14T02:37:04.203Z,8.80
2018-07-14T02:39:33.227Z,9.80
2018-07-14T02:42:02.151Z,8.53
2018-07-14T02:44:31.118Z,8.50
2018-07-14T02:47:00.055Z,11.07
2018-07-14T02:49:29.029Z,13.63
2018-07-14T02:51:58.012Z,9.00
2018-07-14T02:54:26.959Z,9.30
2018-07-14T02:56:55.875Z,9.13
2018-07-14T02:59:24.864Z,12.73
2018-07-14T03:01:53.774Z,11.27
2018-07-14T03:04:22.714Z,9.77
2018-07-14T03:06:51.874Z,9.30
2018-07-14T03:09:20.812Z,11.20
2018-07-14T03:11:50.006Z,9.93
2018-07-14T03:14:19.084Z,11.00
2018-07-14T03:16:48.049Z,12.43
2018-07-14T03:19:17.141Z,12.40
2018-07-14T03:21:46.054Z,13.17
2018-07-14T03:24:15.133Z,13.37
2018-07-14T03:26:44.104Z,12.67
2018-07-14T03:29:13.254Z,13.40
2018-07-14T03:31:43.113Z,11.83
2018-07-14T03:34:12.133Z,11.13
2018-07-14T03:36:41.160Z,11.60
2018-07-14T03:39:10.171Z,16.13
2018-07-14T03:41:39.225Z,15.97
2018-07-14T03:44:08.270Z,14.73
2018-07-14T03:46:37.181Z,15.13
2018-07-14T03:49:06.481Z,16.00
2018-07-14T03:51:35.672Z,12.90
2018-07-14T03:54:04.694Z,11.07
2018-07-14T03:56:33.638Z,14.37
2018-07-14T03:59:03.088Z,13.37
2018-07-14T04:01:32.094Z,14.73
2018-07-14T04:04:01.307Z,12.80
2018-07-14T04:06:30.420Z,12.67
2018-07-14T04:08:59.508Z,12.83
2018-07-14T04:11:28.460Z,15.23
2018-07-14T04:13:57.890Z,13.43
2018-07-14T04:16:27.004Z,16.10
2018-07-14T04:18:56.182Z,15.33
2018-07-14T04:21:25.142Z,18.60
2018-07-14T04:23:54.150Z,11.47
2018-07-14T04:26:23.060Z,14.63
2018-07-14T04:28:52.275Z,18.87
2018-07-14T04:31:21.244Z,13.40
2018-07-14T04:33:50.295Z,12.70
2018-07-14T04:36:19.453Z,14.97
2018-07-14T04:38:48.454Z,11.00
2018-07-14T04:41:17.479Z,13.77
2018-07-14T04:43:46.553Z,12.97
2018-07-14T04:46:15.556Z,15.77
2018-07-14T04:48:44.664Z,14.83
2018-07-14T04:51:13.698Z,12.37
2018-07-14T04:53:42.795Z,11.37
2018-07-14T04:56:11.834Z,11.60
2018-07-14T04:58:40.789Z,15.27
2018-07-14T05:01:09.923Z,12.30
2018-07-14T05:03:38.950Z,14.47
2018-07-14T05:06:08.029Z,11.23
2018-07-14T05:08:36.978Z,12.90
2018-07-14T05:11:06.088Z,13.60
2018-07-14T05:13:35.118Z,12.90
2018-07-14T05:16:04.242Z,13.77
2018-07-14T05:18:33.227Z,12.83
2018-07-14T05:21:02.179Z,19.27
2018-07-14T05:23:31.229Z,14.67
2018-07-14T05:26:00.180Z,14.40
2018-07-14T05:28:29.248Z,15.63
2018-07-14T05:30:58.116Z,14.20
2018-07-14T05:33:27.193Z,15.40
2018-07-14T05:35:56.319Z,13.80
2018-07-14T05:38:25.295Z,18.03
2018-07-14T05:40:54.269Z,13.60
2018-07-14T05:43:23.235Z,12.30
2018-07-14T05:45:52.274Z,14.40
2018-07-14T05:48:21.242Z,15.97
2018-07-14T05:50:50.269Z,16.80
2018-07-14T05:53:19.236Z,22.77
2018-07-14T05:55:48.317Z,14.83
2018-07-14T05:58:17.337Z,15.63
2018-07-14T06:00:46.312Z,16.53
2018-07-14T06:03:15.363Z,14.97
2018-07-14T06:05:44.397Z,16.10
2018-07-14T06:08:13.335Z,14.57
2018-07-14T06:10:42.340Z,13.27
2018-07-14T06:13:11.267Z,18.83
2018-07-14T06:15:40.317Z,15.13
2018-07-14T06:18:09.307Z,17.93
2018-07-14T06:20:38.311Z,15.77
2018-07-14T06:23:07.343Z,15.33
2018-07-14T06:25:36.337Z,15.63
2018-07-14T06:28:05.357Z,16.30
2018-07-14T06:30:34.407Z,18.60
2018-07-14T06:33:03.480Z,15.93
2018-07-14T06:35:32.637Z,15.37
2018-07-14T06:38:01.629Z,18.47
2018-07-14T06:40:30.701Z,15.17
2018-07-14T06:42:59.814Z,15.67
2018-07-14T06:45:28.775Z,15.17
2018-07-14T06:47:57.797Z,17.00
2018-07-14T06:50:26.836Z,18.47
2018-07-14T06:52:55.882Z,14.60
2018-07-14T06:55:25.048Z,17.30
2018-07-14T06:57:53.993Z,14.23
2018-07-14T07:00:22.975Z,18.17
2018-07-14T07:02:51.907Z,16.93
2018-07-14T07:05:20.868Z,15.17
2018-07-14T07:07:49.821Z,17.47
2018-07-14T07:10:18.818Z,17.00
2018-07-14T07:12:47.793Z,14.03
2018-07-14T07:15:16.820Z,16.97
2018-07-14T07:17:45.779Z,17.37
2018-07-14T07:20:14.781Z,17.07
2018-07-14T07:22:43.748Z,19.70
2018-07-14T07:25:12.807Z,16.33
2018-07-14T07:27:41.780Z,16.33
2018-07-14T07:30:10.698Z,16.90
2018-07-14T07:32:39.836Z,19.90
2018-07-14T07:35:08.776Z,15.83
2018-07-14T07:37:37.779Z,19.03
2018-07-14T07:40:06.912Z,17.67
2018-07-14T07:42:35.913Z,16.50
2018-07-14T07:45:05.174Z,15.40
2018-07-14T07:47:34.175Z,16.23
2018-07-14T07:50:03.159Z,17.73
2018-07-14T07:52:32.231Z,22.03
2018-07-14T07:55:01.485Z,19.33
2018-07-14T07:57:30.507Z,18.37
2018-07-14T07:59:59.531Z,16.57
2018-07-14T08:02:28.521Z,15.57
2018-07-14T08:04:58.143Z,15.80
2018-07-14T08:07:27.177Z,15.33
2018-07-14T08:09:56.138Z,18.37
2018-07-14T08:12:25.237Z,15.20
2018-07-14T08:14:54.255Z,17.63
2018-07-14T08:17:23.261Z,15.47
2018-07-14T08:19:52.537Z,15.63
2018-07-14T08:22:21.687Z,15.67
2018-07-14T08:24:50.734Z,15.97
2018-07-14T08:27:19.767Z,16.83
2018-07-14T08:29:49.646Z,16.30
2018-07-14T08:32:24.859Z,15.77
2018-07-14T08:34:53.782Z,16.87
2018-07-14T08:37:22.952Z,18.97
2018-07-14T08:39:51.902Z,18.40
2018-07-14T08:42:20.877Z,15.10
2018-07-14T08:44:49.848Z,17.50
2018-07-14T08:47:18.897Z,13.17
2018-07-14T08:49:47.830Z,14.60
2018-07-14T08:52:16.813Z,15.50
2018-07-14T08:54:45.814Z,16.23
2018-07-14T08:57:14.762Z,11.90
2018-07-14T08:59:43.788Z,18.30
2018-07-14T09:02:12.784Z,16.00
2018-07-14T09:04:41.748Z,14.67
2018-07-14T09:07:10.969Z,14.43
2018-07-14T09:09:40.093Z,14.13
2018-07-14T09:12:09.076Z,14.37
2018-07-14T09:14:38.340Z,13.00
2018-07-14T09:17:07.447Z,15.97
2018-07-14T09:19:36.416Z,14.47
2018-07-14T09:22:05.443Z,15.40
2018-07-14T09:24:34.436Z,13.47
2018-07-14T09:27:04.335Z,12.40
2018-07-14T09:29:33.258Z,11.17
2018-07-14T09:32:02.228Z,13.50
2018-07-14T09:34:31.221Z,13.53
2018-07-14T09:37:00.221Z,14.27
2018-07-14T09:39:29.137Z,11.53
2018-07-14T09:41:58.213Z,14.63
2018-07-14T09:44:27.478Z,12.43
2018-07-14T09:46:56.525Z,11.73
2018-07-14T09:49:25.471Z,11.43
2018-07-14T09:51:54.495Z,14.73
2018-07-14T09:54:23.497Z,13.23
2018-07-14T09:56:52.457Z,13.57
2018-07-14T09:59:21.440Z,12.80
2018-07-14T10:01:50.403Z,12.70
2018-07-14T10:04:19.364Z,11.47
2018-07-14T10:06:48.403Z,11.70
2018-07-14T10:09:17.361Z,10.70
2018-07-14T10:11:46.236Z,10.80
2018-07-14T10:14:15.233Z,10.80
2018-07-14T10:16:44.297Z,13.73
2018-07-14T10:19:13.228Z,11.83
2018-07-14T10:21:42.196Z,11.75
2018-07-14T10:24:11.177Z,9.35
2018-07-14T10:26:40.121Z,10.72
2018-07-14T10:29:09.189Z,11.12
2018-07-14T10:31:38.160Z,10.98
2018-07-14T10:34:07.428Z,10.70
2018-07-14T10:36:36.393Z,10.78
2018-07-14T10:39:06.967Z,10.93
2018-07-14T10:41:35.994Z,10.75
2018-07-14T10:44:05.013Z,11.57
2018-07-14T10:46:33.913Z,13.95
2018-07-14T10:49:02.977Z,11.25
2018-07-14T10:51:31.967Z,10.32
2018-07-14T10:54:00.957Z,14.28
2018-07-14T10:56:29.914Z,10.25
2018-07-14T10:58:58.917Z,11.45
2018-07-14T11:01:27.884Z,16.25
2018-07-14T11:03:57.148Z,14.95
2018-07-14T11:06:26.200Z,13.18
2018-07-14T11:08:55.218Z,13.50
2018-07-14T11:11:24.252Z,12.43
2018-07-14T11:13:53.367Z,15.18
2018-07-14T11:16:22.358Z,15.10
2018-07-14T11:18:51.401Z,15.63
2018-07-14T11:21:20.432Z,14.03
2018-07-14T11:23:49.606Z,13.00
2018-07-14T11:26:18.474Z,12.10
2018-07-14T11:28:47.458Z,13.20
2018-07-14T11:31:16.378Z,12.33
2018-07-14T11:33:45.603Z,12.88
2018-07-14T11:36:14.488Z,12.65
2018-07-14T11:38:43.452Z,12.88
2018-07-14T11:41:12.485Z,11.80
2018-07-14T11:43:41.660Z,10.70
2018-07-14T11:46:12.389Z,12.18
2018-07-14T11:48:42.179Z,11.25
2018-07-14T11:51:14.096Z,10.48
2018-07-14T11:53:43.243Z,12.43
2018-07-14T11:56:12.288Z,10.95
2018-07-14T11:58:41.442Z,10.63
2018-07-14T12:01:10.661Z,11.90
2018-07-14T12:03:39.906Z,13.80
2018-07-14T12:06:08.929Z,11.08
2018-07-14T12:08:38.082Z,12.98
2018-07-14T12:11:07.202Z,11.53
2018-07-14T12:13:36.297Z,12.65
2018-07-14T12:16:05.494Z,12.80
2018-07-14T12:18:34.614Z,11.50
2018-07-14T12:21:03.739Z,11.30
2018-07-14T12:23:32.851Z,10.30
2018-07-14T12:26:01.819Z,11.78
2018-07-14T12:28:30.770Z,11.30
2018-07-14T12:30:59.748Z,10.70
2018-07-14T12:33:28.847Z,11.48
2018-07-14T12:35:57.814Z,12.53
2018-07-14T12:38:26.868Z,10.78
2018-07-14T12:40:55.991Z,10.32
2018-07-14T12:43:25.019Z,11.00
2018-07-14T12:45:54.740Z,13.75
2018-07-14T12:48:23.667Z,11.00
2018-07-14T12:50:52.629Z,11.15
2018-07-14T12:53:21.603Z,9.88
2018-07-14T12:55:50.615Z,11.60
2018-07-14T12:58:19.569Z,13.20
2018-07-14T13:00:50.055Z,12.15
2018-07-14T13:03:19.448Z,11.83
2018-07-14T13:05:51.318Z,10.20
2018-07-14T13:08:20.335Z,10.68
2018-07-14T13:10:49.376Z,10.85
2018-07-14T13:13:18.343Z,9.95
2018-07-14T13:15:47.381Z,10.48
2018-07-14T13:18:16.385Z,9.33
2018-07-14T13:20:45.580Z,9.75
2018-07-14T13:23:14.526Z,10.48
2018-07-14T13:25:43.876Z,10.63
2018-07-14T13:28:12.848Z,10.65
2018-07-14T13:30:41.848Z,10.65
2018-07-14T13:33:10.961Z,10.40
2018-07-14T13:35:42.580Z,9.53
2018-07-14T13:38:11.706Z,9.53
2018-07-14T13:40:40.826Z,9.08
2018-07-14T13:43:10.020Z,9.53
2018-07-14T13:45:39.104Z,9.23
2018-07-14T13:48:08.375Z,8.40
2018-07-14T13:50:37.518Z,11.22
2018-07-14T13:53:06.678Z,8.43
2018-07-14T13:55:35.658Z,10.13
2018-07-14T13:58:17.061Z,9.18
2018-07-14T14:00:46.430Z,11.10
2018-07-14T14:03:15.538Z,13.45
2018-07-14T14:05:44.638Z,10.20
2018-07-14T14:08:13.852Z,10.00
2018-07-14T14:10:43.062Z,9.65
2018-07-14T14:13:13.130Z,9.98
2018-07-14T14:15:43.461Z,10.48
2018-07-14T14:18:12.977Z,10.95
2018-07-14T14:20:43.504Z,9.65
2018-07-14T14:23:12.779Z,10.48
2018-07-14T14:25:43.422Z,10.93
2018-07-14T14:28:13.310Z,9.98
2018-07-14T14:30:44.890Z,11.38
2018-07-14T14:33:14.039Z,10.40
2018-07-14T14:35:43.369Z,9.85
2018-07-14T14:38:12.777Z,15.23
2018-07-14T14:40:42.086Z,10.60
2018-07-14T14:43:12.983Z,10.78
2018-07-14T14:45:42.095Z,11.20
2018-07-14T14:48:11.236Z,11.20
2018-07-14T14:50:40.360Z,10.48
2018-07-14T14:53:10.313Z,10.85
2018-07-14T14:55:41.716Z,11.85
2018-07-14T14:58:10.984Z,11.90
2018-07-14T15:00:40.069Z,9.40
2018-07-14T15:03:10.150Z,10.00
2018-07-14T15:05:42.517Z,10.72
2018-07-14T15:08:14.727Z,11.80
2018-07-14T15:10:43.798Z,10.90
2018-07-14T15:13:12.894Z,12.20
2018-07-14T15:15:44.309Z,10.75
2018-07-14T15:18:13.465Z,10.08
2018-07-14T15:20:48.992Z,9.70
2018-07-14T15:23:18.155Z,11.50
2018-07-14T15:25:47.411Z,10.60
2018-07-14T15:28:16.536Z,11.00
2018-07-14T15:30:47.923Z,10.00
2018-07-14T15:33:19.056Z,11.18
2018-07-14T15:35:48.722Z,10.32
2018-07-14T15:38:19.014Z,11.73
2018-07-14T15:40:48.737Z,9.70
2018-07-14T15:43:19.304Z,10.72
2018-07-14T15:45:48.653Z,9.85
2018-07-14T15:48:18.491Z,11.53
2018-07-14T15:50:47.798Z,9.80
2018-07-14T15:53:17.615Z,9.98
2018-07-14T15:55:47.041Z,9.13
2018-07-14T15:58:16.187Z,8.83
2018-07-14T16:00:46.695Z,8.75
2018-07-14T16:03:16.064Z,8.13
2018-07-14T16:05:45.635Z,8.80
2018-07-14T16:08:15.868Z,8.25
2018-07-14T16:10:45.031Z,8.03
2018-07-14T16:13:14.128Z,7.72
2018-07-14T16:15:43.300Z,7.33
2018-07-14T16:18:12.390Z,7.58
2018-07-14T16:20:41.517Z,6.78
2018-07-14T16:23:10.534Z,8.45
2018-07-14T16:25:39.621Z,7.05
2018-07-14T16:28:08.749Z,7.03
2018-07-14T16:30:37.971Z,10.08
2018-07-14T16:33:07.069Z,6.78
2018-07-14T16:35:36.281Z,6.95
2018-07-14T16:38:05.600Z,6.12
2018-07-14T16:40:34.706Z,6.85
2018-07-14T16:43:03.908Z,6.58
2018-07-14T16:45:33.047Z,5.53
2018-07-14T16:48:02.212Z,7.05
2018-07-14T16:50:34.238Z,6.72
2018-07-14T16:53:03.283Z,8.05
2018-07-14T16:55:32.511Z,6.00
2018-07-14T16:58:01.796Z,7.85
2018-07-14T17:00:31.101Z,6.12
2018-07-14T17:03:00.204Z,5.60
2018-07-14T17:05:29.186Z,5.67
2018-07-14T17:07:58.183Z,5.85
2018-07-14T17:10:27.234Z,5.58
2018-07-14T17:12:56.396Z,6.50
2018-07-14T17:15:25.559Z,5.95
2018-07-14T17:17:54.699Z,6.53
2018-07-14T17:20:24.663Z,7.40
2018-07-14T17:22:53.800Z,4.67
2018-07-14T17:25:22.822Z,7.22
2018-07-14T17:27:51.986Z,6.15
2018-07-14T17:30:21.015Z,5.30
2018-07-14T17:32:50.088Z,6.00
2018-07-14T17:35:19.243Z,5.47
2018-07-14T17:37:48.374Z,4.85
2018-07-14T17:40:17.802Z,5.05
2018-07-14T17:42:46.727Z,7.62
2018-07-14T17:45:15.627Z,5.03
2018-07-14T17:47:44.942Z,4.78
2018-07-14T17:50:13.905Z,4.65
2018-07-14T17:52:42.892Z,4.85
2018-07-14T17:55:11.978Z,4.78
2018-07-14T17:57:40.913Z,5.30
2018-07-14T18:00:09.991Z,6.37
2018-07-14T18:02:39.128Z,8.47
2018-07-14T18:05:08.198Z,4.30
2018-07-14T18:07:37.189Z,4.13
2018-07-14T18:10:06.176Z,3.80
2018-07-14T18:12:35.334Z,4.00
2018-07-14T18:15:04.735Z,4.50
2018-07-14T18:17:33.708Z,3.47
2018-07-14T18:20:02.757Z,4.13
2018-07-14T18:22:32.182Z,7.60
2018-07-14T18:25:01.295Z,3.73
2018-07-14T18:27:37.482Z,5.43
2018-07-14T18:30:06.676Z,5.20
2018-07-14T18:32:35.608Z,4.10
2018-07-14T18:35:04.679Z,4.77
2018-07-14T18:37:33.733Z,6.10
2018-07-14T18:40:02.649Z,10.30
2018-07-14T18:42:31.815Z,4.57
2018-07-14T18:45:00.905Z,4.20
2018-07-14T18:47:29.962Z,4.13
2018-07-14T18:49:58.944Z,4.97
2018-07-14T18:52:28.487Z,6.47
2018-07-14T18:54:57.285Z,5.07
2018-07-14T18:57:26.446Z,3.97
2018-07-14T18:59:55.344Z,4.37
2018-07-14T19:02:24.441Z,5.07
2018-07-14T19:04:53.438Z,4.80
2018-07-14T19:07:23.675Z,4.10
2018-07-14T19:09:52.885Z,4.53
2018-07-14T19:12:21.855Z,4.67
2018-07-14T19:14:50.869Z,4.93
2018-07-14T19:17:19.769Z,4.57
2018-07-14T19:19:48.714Z,3.90
2018-07-14T19:22:17.649Z,4.57
2018-07-14T19:24:46.565Z,5.57
2018-07-14T19:27:15.675Z,9.03
2018-07-14T19:29:44.829Z,4.03
2018-07-14T19:32:13.755Z,4.90
2018-07-14T19:34:42.710Z,7.63
2018-07-14T19:37:11.669Z,4.77
2018-07-14T19:39:40.813Z,5.00
2018-07-14T19:42:09.816Z,4.57
2018-07-14T19:44:38.915Z,6.47
2018-07-14T19:47:07.972Z,5.00
2018-07-14T19:49:36.963Z,6.13
2018-07-14T19:52:06.104Z,4.90
2018-07-14T19:54:35.079Z,5.80
2018-07-14T19:57:04.123Z,7.07
2018-07-14T19:59:33.144Z,4.87
2018-07-14T20:02:02.211Z,5.07
2018-07-14T20:04:31.147Z,6.83
2018-07-14T20:07:00.207Z,5.47
2018-07-14T20:09:29.148Z,7.43
2018-07-14T20:11:58.398Z,7.27
2018-07-14T20:14:27.451Z,5.80
2018-07-14T20:16:56.589Z,6.43
2018-07-14T20:19:25.753Z,5.60
2018-07-14T20:21:54.881Z,5.30
2018-07-14T20:24:23.964Z,7.97
2018-07-14T20:26:52.855Z,5.73
2018-07-14T20:29:21.798Z,5.93
2018-07-14T20:31:50.711Z,8.60
2018-07-14T20:34:19.707Z,6.13
2018-07-14T20:36:48.784Z,6.97
2018-07-14T20:39:17.779Z,8.80
2018-07-14T20:41:46.730Z,6.43
2018-07-14T20:44:15.831Z,6.47
2018-07-14T20:46:44.756Z,9.57
2018-07-14T20:49:13.824Z,7.83
2018-07-14T20:51:42.770Z,6.27
2018-07-14T20:54:11.939Z,6.53
2018-07-14T20:56:40.888Z,9.43
2018-07-14T20:59:09.853Z,8.30
2018-07-14T21:01:38.939Z,6.70
2018-07-14T21:04:07.979Z,6.77
2018-07-14T21:06:37.162Z,6.90
2018-07-14T21:09:06.674Z,6.43
2018-07-14T21:11:35.689Z,7.10
2018-07-14T21:14:04.785Z,7.60
2018-07-14T21:16:33.798Z,8.50
2018-07-14T21:19:03.124Z,6.80
2018-07-14T21:21:32.140Z,7.90
2018-07-14T21:24:01.322Z,8.53
2018-07-14T21:26:30.323Z,10.30
2018-07-14T21:28:59.624Z,8.07
2018-07-14T21:31:28.703Z,6.63
2018-07-14T21:33:57.813Z,7.23
2018-07-14T21:36:27.081Z,9.40
2018-07-14T21:38:56.077Z,7.40
2018-07-14T21:41:25.219Z,7.13
2018-07-14T21:43:54.607Z,15.73
2018-07-14T21:46:23.776Z,7.03
2018-07-14T21:48:52.791Z,7.23
2018-07-14T21:51:21.830Z,8.30
2018-07-14T21:53:50.914Z,7.23
2018-07-14T21:56:19.966Z,8.33
2018-07-14T21:58:48.930Z,7.63
2018-07-14T22:01:23.241Z,8.43
2018-07-14T22:03:52.329Z,11.47
2018-07-14T22:06:21.567Z,9.13
2018-07-14T22:08:50.498Z,8.83
2018-07-14T22:11:19.709Z,8.60
2018-07-14T22:13:48.808Z,7.67
2018-07-14T22:16:17.899Z,7.47
2018-07-14T22:18:47.023Z,7.70
2018-07-14T22:21:16.098Z,7.97
2018-07-14T22:23:45.083Z,9.60
2018-07-14T22:26:14.078Z,7.77
2018-07-14T22:28:43.058Z,7.63
2018-07-14T22:31:12.209Z,8.00
2018-07-14T22:33:41.250Z,7.50
2018-07-14T22:36:10.403Z,9.17
2018-07-14T22:38:39.583Z,7.87
2018-07-14T22:41:08.663Z,9.80
2018-07-14T22:43:37.743Z,9.40
2018-07-14T22:46:06.795Z,9.27
2018-07-14T22:48:36.151Z,8.63
2018-07-14T22:51:05.179Z,10.20
2018-07-14T22:53:34.219Z,9.43
2018-07-14T22:56:03.322Z,10.33
2018-07-14T22:58:32.330Z,8.27
2018-07-14T23:01:01.396Z,8.30
2018-07-14T23:03:30.764Z,11.50
2018-07-14T23:06:00.048Z,8.27
2018-07-14T23:08:28.992Z,8.40
2018-07-14T23:10:58.069Z,7.97
2018-07-14T23:13:27.101Z,8.07
2018-07-14T23:15:56.255Z,8.70
2018-07-14T23:18:25.318Z,7.47
2018-07-14T23:20:54.389Z,9.73
2018-07-14T23:23:23.355Z,8.90
2018-07-14T23:25:52.480Z,9.47
2018-07-14T23:28:23.365Z,8.13
2018-07-14T23:30:58.721Z,9.53
2018-07-14T23:33:27.605Z,9.13
2018-07-14T23:35:56.540Z,8.60
2018-07-14T23:38:25.782Z,8.87
2018-07-14T23:40:54.708Z,9.17
2018-07-14T23:43:23.634Z,9.80
2018-07-14T23:45:52.597Z,8.70
2018-07-14T23:48:21.528Z,10.83
2018-07-14T23:50:50.607Z,9.67
2018-07-14T23:53:19.538Z,8.50
2018-07-14T23:55:48.556Z,8.27
2018-07-14T23:58:17.512Z,7.93
